createdAt,value
2023-06-19T00:01:22.303Z,94490.63
2023-06-19T00:16:26.501Z,94488.16
2023-06-19T00:31:31.291Z,94476.31
2023-06-19T00:46:33.501Z,94464.19
2023-06-19T01:01:35.928Z,94441.72
2023-06-19T01:16:39.009Z,94428.41
2023-06-19T01:32:16.918Z,94434.44
2023-06-19T01:47:21.308Z,94451.00
2023-06-19T02:02:23.446Z,94449.88
2023-06-19T02:17:25.517Z,94471.16
2023-06-19T02:32:27.864Z,94468.59
2023-06-19T02:47:31.763Z,94472.59
2023-06-19T03:02:33.937Z,94487.34
2023-06-19T03:17:36.271Z,94477.44
2023-06-19T03:32:38.247Z,94487.44
2023-06-19T03:47:40.314Z,94490.91
2023-06-19T04:02:42.714Z,94483.50
2023-06-19T04:17:44.811Z,94480.66
2023-06-19T04:32:46.927Z,94469.94
2023-06-19T04:47:54.083Z,94475.84
2023-06-19T05:03:00.813Z,94472.91
2023-06-19T05:18:03.037Z,94471.31
2023-06-19T05:33:05.433Z,94496.19
2023-06-19T05:48:07.483Z,94507.28
2023-06-19T06:03:09.602Z,94509.34
2023-06-19T06:18:11.762Z,94518.19
2023-06-19T06:33:13.880Z,94522.44
2023-06-19T06:48:17.249Z,94533.56
2023-06-19T07:03:19.807Z,94533.31
2023-06-19T07:18:22.090Z,94520.50
2023-06-19T07:33:24.097Z,94536.31
2023-06-19T07:48:26.179Z,94536.03
2023-06-19T08:03:28.641Z,94535.03
2023-06-19T08:18:30.514Z,94528.47
2023-06-19T08:33:32.309Z,94526.25
2023-06-19T08:48:37.119Z,94529.72
2023-06-19T09:03:39.085Z,94530.19
2023-06-19T09:18:46.478Z,94529.94
2023-06-19T09:33:48.363Z,94525.34
2023-06-19T09:48:55.909Z,94525.91
2023-06-19T10:04:06.125Z,94524.88
2023-06-19T10:19:19.472Z,94508.59
2023-06-19T10:34:22.139Z,94500.91
2023-06-19T10:49:24.611Z,94478.88
2023-06-19T11:04:26.792Z,94483.81
2023-06-19T11:19:31.873Z,94478.34
2023-06-19T11:34:36.826Z,94473.78
2023-06-19T11:49:39.340Z,94459.78
2023-06-19T12:04:41.403Z,94449.13
2023-06-19T12:19:43.423Z,94459.03
2023-06-19T12:34:47.558Z,94438.66
2023-06-19T12:49:49.394Z,94437.41
2023-06-19T13:04:51.414Z,94444.66
2023-06-19T13:19:53.371Z,94428.78
2023-06-19T13:34:55.277Z,94442.38
2023-06-19T13:49:57.214Z,94430.22
2023-06-19T14:04:59.004Z,94417.69
2023-06-19T14:20:00.899Z,94418.81
2023-06-19T14:35:03.008Z,94406.09
2023-06-19T14:50:05.177Z,94411.59
2023-06-19T15:05:07.777Z,94405.31
2023-06-19T15:20:10.152Z,94395.56
2023-06-19T15:35:12.659Z,94401.53
2023-06-19T15:50:14.665Z,94403.59
2023-06-19T16:05:16.716Z,94397.59
2023-06-19T16:20:18.518Z,94404.00
2023-06-19T16:35:23.501Z,94412.63
2023-06-19T16:50:35.662Z,94421.28
2023-06-19T17:05:42.663Z,94420.19
2023-06-19T17:36:05.625Z,94446.22
2023-06-19T18:40:00.444Z,94496.88
2023-06-19T18:55:02.708Z,94522.00
2023-06-19T19:10:06.693Z,94523.25
2023-06-19T19:25:08.918Z,94526.00
2023-06-19T19:40:15.672Z,94526.53
2023-06-19T19:55:31.435Z,94540.50
2023-06-19T20:10:39.070Z,94546.25
2023-06-19T20:25:40.941Z,94543.88
2023-06-19T20:40:42.990Z,94552.38
2023-06-19T20:55:46.294Z,94550.28
2023-06-19T21:10:48.402Z,94540.66
2023-06-19T21:25:50.549Z,94556.09
2023-06-19T21:40:52.378Z,94562.63
2023-06-19T21:56:03.910Z,94552.16
2023-06-19T22:11:05.760Z,94561.91
2023-06-19T22:26:07.691Z,94564.47
2023-06-19T22:41:09.532Z,94557.66
2023-06-19T22:56:11.423Z,94564.81
2023-06-19T23:11:13.244Z,94558.69
2023-06-19T23:26:15.812Z,94547.59
2023-06-19T23:41:18.983Z,94533.72
2023-06-19T23:56:20.914Z,94538.56
